createdAt,value
2023-03-10T00:01:30.379Z,99662.78
2023-03-10T00:03:59.949Z,99661.84
2023-03-10T00:06:32.724Z,99658.44
2023-03-10T00:09:00.916Z,99654.81
2023-03-10T00:11:29.283Z,99650.44
2023-03-10T00:13:57.469Z,99657.47
2023-03-10T00:16:29.216Z,99647.78
2023-03-10T00:18:58.114Z,99644.28
2023-03-10T00:21:30.045Z,99634.50
2023-03-10T00:23:59.092Z,99628.34
2023-03-10T00:26:29.182Z,99627.47
2023-03-10T00:28:57.615Z,99634.50
2023-03-10T00:31:27.633Z,99630.03
2023-03-10T00:33:56.247Z,99638.97
2023-03-10T00:36:27.759Z,99631.09
2023-03-10T00:38:56.593Z,99625.00
2023-03-10T00:41:26.840Z,99616.16
2023-03-10T00:43:55.109Z,99627.47
2023-03-10T00:46:25.751Z,99624.06
2023-03-10T00:48:54.050Z,99625.75
2023-03-10T00:51:23.052Z,99630.22
2023-03-10T00:53:51.504Z,99622.34
2023-03-10T00:56:23.093Z,99618.75
2023-03-10T00:58:54.196Z,99608.28
2023-03-10T01:01:28.234Z,99602.78
2023-03-10T01:03:57.983Z,99601.25
2023-03-10T01:06:26.580Z,99587.69
2023-03-10T01:08:54.936Z,99581.53
2023-03-10T01:11:26.353Z,99579.91
2023-03-10T01:13:57.766Z,99584.28
2023-03-10T01:16:26.608Z,99578.88
2023-03-10T01:18:57.081Z,99575.44
2023-03-10T01:21:28.828Z,99567.66
2023-03-10T01:23:57.079Z,99564.06
2023-03-10T01:26:25.672Z,99556.84
2023-03-10T01:28:53.767Z,99553.25
2023-03-10T01:31:22.213Z,99548.88
2023-03-10T01:33:50.239Z,99544.50
2023-03-10T01:36:22.925Z,99542.78
2023-03-10T01:38:50.907Z,99533.03
2023-03-10T01:41:20.294Z,99523.25
2023-03-10T01:43:53.518Z,99527.06
2023-03-10T01:46:35.158Z,99532.16
2023-03-10T01:49:37.061Z,99527.81
2023-03-10T01:52:16.339Z,99521.75
2023-03-10T01:54:57.524Z,99509.28
2023-03-10T01:57:38.142Z,99487.22
2023-03-10T02:00:15.133Z,99489.88
2023-03-10T02:02:56.013Z,99491.75
2023-03-10T02:05:25.181Z,99489.88
2023-03-10T02:07:54.884Z,99482.84
2023-03-10T02:10:22.936Z,99470.28
2023-03-10T02:12:54.330Z,99468.63
2023-03-10T02:15:22.376Z,99464.25
2023-03-10T02:17:52.849Z,99465.19
2023-03-10T02:20:41.340Z,99459.88
2023-03-10T02:23:10.965Z,99456.28
2023-03-10T02:26:28.497Z,99459.88
2023-03-10T02:28:58.990Z,99456.47
2023-03-10T02:31:27.525Z,99446.00
2023-03-10T02:33:56.376Z,99449.34
2023-03-10T02:36:25.046Z,99446.78
2023-03-10T02:38:53.425Z,99453.88
2023-03-10T02:41:29.396Z,99454.75
2023-03-10T02:44:00.546Z,99454.75
2023-03-10T02:46:30.600Z,99453.03
2023-03-10T02:49:01.062Z,99443.44
2023-03-10T02:51:47.968Z,99451.31
2023-03-10T02:54:19.090Z,99444.31
2023-03-10T02:56:47.153Z,99433.84
2023-03-10T02:59:16.831Z,99437.28
2023-03-10T03:01:51.133Z,99424.84
2023-03-10T03:04:21.382Z,99419.63
2023-03-10T03:06:49.694Z,99423.03
2023-03-10T03:09:18.117Z,99413.38
2023-03-10T03:11:47.517Z,99414.22
2023-03-10T03:14:19.440Z,99409.19
2023-03-10T03:16:49.638Z,99405.59
2023-03-10T03:19:17.994Z,99404.53
2023-03-10T03:21:50.201Z,99394.78
2023-03-10T03:24:21.502Z,99401.78
2023-03-10T03:26:50.060Z,99397.44
2023-03-10T03:29:22.335Z,99378.84
2023-03-10T03:31:50.561Z,99379.88
2023-03-10T03:34:22.192Z,99382.44
2023-03-10T03:36:53.814Z,99379.97
2023-03-10T03:39:30.783Z,99375.59
2023-03-10T03:42:02.290Z,99372.19
2023-03-10T03:44:36.530Z,99380.91
2023-03-10T03:47:05.470Z,99369.34
2023-03-10T03:49:35.772Z,99372.00
2023-03-10T03:52:04.781Z,99365.19
2023-03-10T03:54:33.422Z,99367.63
2023-03-10T03:57:01.577Z,99366.69
2023-03-10T03:59:30.420Z,99366.88
2023-03-10T04:01:58.430Z,99358.81
2023-03-10T04:04:27.504Z,99360.50
2023-03-10T04:06:56.634Z,99361.38
2023-03-10T04:09:25.271Z,99353.50
2023-03-10T04:11:53.376Z,99349.25
2023-03-10T04:14:22.578Z,99343.94
2023-03-10T04:16:50.924Z,99350.94
2023-03-10T04:19:19.212Z,99337.00
2023-03-10T04:21:50.136Z,99338.63
2023-03-10T04:24:18.732Z,99342.97
2023-03-10T04:26:46.904Z,99340.31
2023-03-10T04:29:15.274Z,99345.63
2023-03-10T04:31:53.075Z,99342.97
2023-03-10T04:34:27.664Z,99332.56
2023-03-10T04:36:55.608Z,99328.00
2023-03-10T04:39:24.060Z,99318.50
2023-03-10T04:41:52.143Z,99319.19
2023-03-10T04:44:31.413Z,99311.31
2023-03-10T04:47:02.334Z,99306.00
2023-03-10T04:49:31.395Z,99302.38
2023-03-10T04:52:00.630Z,99296.31
2023-03-10T04:54:29.699Z,99299.91
2023-03-10T04:56:58.126Z,99287.50
2023-03-10T04:59:26.662Z,99283.97
2023-03-10T05:01:55.391Z,99276.97
2023-03-10T05:04:24.890Z,99255.91
2023-03-10T05:06:55.005Z,99239.13
2023-03-10T05:09:30.592Z,99243.19
2023-03-10T05:11:58.679Z,99237.69
2023-03-10T05:14:30.919Z,99233.84
2023-03-10T05:16:58.989Z,99222.00
2023-03-10T05:19:29.015Z,99210.13
2023-03-10T05:21:59.032Z,99197.59
2023-03-10T05:24:27.263Z,99219.56
2023-03-10T05:26:55.340Z,99218.09
2023-03-10T05:29:23.858Z,99222.16
2023-03-10T05:31:56.870Z,99216.00
2023-03-10T05:34:31.189Z,99209.44
2023-03-10T05:37:02.410Z,99212.41
2023-03-10T05:39:30.760Z,99214.97
2023-03-10T05:42:02.061Z,99210.75
2023-03-10T05:44:33.902Z,99217.13
2023-03-10T05:47:04.052Z,99210.28
2023-03-10T05:49:32.473Z,99208.69
2023-03-10T05:52:00.638Z,99219.69
2023-03-10T05:54:29.074Z,99207.75
2023-03-10T05:56:57.361Z,99209.53
2023-03-10T05:59:28.543Z,99208.78
2023-03-10T06:01:57.092Z,99207.94
2023-03-10T06:04:28.689Z,99196.25
2023-03-10T06:06:56.702Z,99199.88
2023-03-10T06:09:24.981Z,99195.41
2023-03-10T06:11:52.966Z,99192.84
2023-03-10T06:14:21.361Z,99190.06
2023-03-10T06:16:51.581Z,99193.03
2023-03-10T06:19:21.977Z,99195.69
2023-03-10T06:21:50.374Z,99192.19
2023-03-10T06:24:18.809Z,99196.88
2023-03-10T06:26:46.826Z,99195.19
2023-03-10T06:29:15.171Z,99197.00
2023-03-10T06:31:43.247Z,99197.94
2023-03-10T06:34:11.726Z,99194.22
2023-03-10T06:36:40.555Z,99190.94
2023-03-10T06:39:08.904Z,99195.28
2023-03-10T06:41:37.890Z,99191.78
2023-03-10T06:44:06.496Z,99191.13
2023-03-10T06:46:34.490Z,99194.53
2023-03-10T06:49:02.819Z,99194.53
2023-03-10T06:51:30.822Z,99195.59
2023-03-10T06:53:59.168Z,99192.06
2023-03-10T06:56:27.205Z,99194.75
2023-03-10T06:58:55.511Z,99191.78
2023-03-10T07:01:34.101Z,99191.78
2023-03-10T07:04:02.602Z,99189.00
2023-03-10T07:06:30.744Z,99175.81
2023-03-10T07:08:59.242Z,99172.31
2023-03-10T07:11:27.883Z,99169.75
2023-03-10T07:13:56.251Z,99168.81
2023-03-10T07:16:24.584Z,99171.56
2023-03-10T07:18:52.985Z,99173.47
2023-03-10T07:21:21.431Z,99169.00
2023-03-10T07:23:50.288Z,99163.13
2023-03-10T07:26:19.074Z,99150.69
2023-03-10T07:28:47.725Z,99147.28
2023-03-10T07:31:16.578Z,99151.75
2023-03-10T07:33:44.952Z,99145.59
2023-03-10T07:36:16.503Z,99141.34
2023-03-10T07:38:45.570Z,99133.47
2023-03-10T07:41:19.521Z,99127.31
2023-03-10T07:43:48.347Z,99128.16
2023-03-10T07:46:16.471Z,99128.69
2023-03-10T07:48:45.050Z,99116.47
2023-03-10T07:51:13.155Z,99115.19
2023-03-10T07:53:41.594Z,99112.72
2023-03-10T07:56:11.554Z,99112.63
2023-03-10T07:58:40.824Z,99119.53
2023-03-10T08:01:15.278Z,99122.94
2023-03-10T08:03:43.882Z,99113.38
2023-03-10T08:06:25.884Z,99121.25
2023-03-10T08:08:54.731Z,99113.16
2023-03-10T08:11:23.241Z,99113.28
2023-03-10T08:13:51.758Z,99111.56
2023-03-10T08:16:21.644Z,99115.19
2023-03-10T08:18:52.430Z,99107.41
2023-03-10T08:21:20.661Z,99099.69
2023-03-10T08:23:49.000Z,99097.97
2023-03-10T08:26:18.428Z,99085.53
2023-03-10T08:28:47.457Z,99079.47
2023-03-10T08:31:18.457Z,99076.06
2023-03-10T08:33:47.048Z,99076.72
2023-03-10T08:36:23.493Z,99074.16
2023-03-10T08:38:53.636Z,99068.19
2023-03-10T08:41:29.412Z,99076.91
2023-03-10T08:43:58.700Z,99070.63
2023-03-10T08:46:28.930Z,99070.00
2023-03-10T08:48:58.026Z,99062.03
2023-03-10T08:51:26.438Z,99069.91
2023-03-10T08:53:56.545Z,99061.16
2023-03-10T08:56:24.999Z,99069.25
2023-03-10T08:59:01.112Z,99069.03
2023-03-10T09:01:32.913Z,99076.91
2023-03-10T09:04:02.725Z,99079.56
2023-03-10T09:06:30.935Z,99073.50
2023-03-10T09:08:59.293Z,99073.50
2023-03-10T09:11:31.729Z,99066.47
2023-03-10T09:14:01.561Z,99083.28
2023-03-10T09:16:30.269Z,99070.94
2023-03-10T09:18:58.942Z,99062.13
2023-03-10T09:21:27.721Z,99068.84
2023-03-10T09:23:56.148Z,99060.13
2023-03-10T09:26:24.190Z,99055.44
2023-03-10T09:28:53.405Z,99051.59
2023-03-10T09:31:25.899Z,99037.13
2023-03-10T09:33:54.357Z,99039.78
2023-03-10T09:36:22.857Z,99037.66
2023-03-10T09:38:51.117Z,99050.75
2023-03-10T09:41:21.898Z,99043.72
2023-03-10T09:44:02.412Z,99043.94
2023-03-10T09:46:52.747Z,99031.59
2023-03-10T09:49:39.812Z,99025.31
2023-03-10T09:52:20.093Z,99032.44
2023-03-10T09:54:54.234Z,99029.91
2023-03-10T09:57:23.372Z,99012.47
2023-03-10T09:59:56.143Z,99022.88
2023-03-10T10:02:28.321Z,99019.69
2023-03-10T10:05:00.865Z,99021.38
2023-03-10T10:07:42.441Z,99017.78
2023-03-10T10:10:37.299Z,99018.72
2023-03-10T10:13:14.481Z,99017.78
2023-03-10T10:15:47.466Z,99005.53
2023-03-10T10:18:27.024Z,99012.47
2023-03-10T10:21:33.535Z,99015.31
2023-03-10T10:24:08.348Z,99009.16
2023-03-10T10:26:36.669Z,99008.34
2023-03-10T10:29:47.264Z,99002.03
2023-03-10T10:32:16.716Z,98988.75
2023-03-10T10:34:46.244Z,98993.09
2023-03-10T10:37:26.766Z,98984.28
2023-03-10T10:39:56.602Z,98992.47
2023-03-10T10:42:28.038Z,98986.19
2023-03-10T10:45:22.086Z,98973.31
2023-03-10T10:47:52.034Z,98977.16
2023-03-10T10:50:44.833Z,98983.53
2023-03-10T10:53:15.849Z,98983.31
2023-03-10T10:55:46.149Z,98976.91
2023-03-10T10:59:00.731Z,98975.94
2023-03-10T11:02:08.857Z,98982.13
2023-03-10T11:04:46.449Z,98977.53
2023-03-10T11:07:20.111Z,98982.88
2023-03-10T11:09:48.482Z,98982.66
2023-03-10T11:12:41.530Z,98972.00
2023-03-10T11:15:37.522Z,98978.41
2023-03-10T11:18:22.911Z,98970.09
2023-03-10T11:21:22.742Z,98972.53
2023-03-10T11:24:13.833Z,98971.78
2023-03-10T11:26:48.407Z,98963.06
2023-03-10T11:29:39.398Z,98962.13
2023-03-10T11:32:26.583Z,98956.38
2023-03-10T11:34:54.662Z,98957.09
2023-03-10T11:37:43.416Z,98963.88
2023-03-10T11:40:26.685Z,98955.28
2023-03-10T11:43:01.293Z,98964.84
2023-03-10T11:45:38.053Z,98959.31
2023-03-10T11:48:19.206Z,98948.69
2023-03-10T11:50:47.223Z,98943.38
2023-03-10T11:53:24.332Z,98947.84
2023-03-10T11:55:54.253Z,98935.81
2023-03-10T11:58:32.542Z,98937.06
2023-03-10T12:01:01.092Z,98926.09
2023-03-10T12:04:10.321Z,98925.47
2023-03-10T12:06:44.862Z,98918.97
2023-03-10T12:09:27.261Z,98908.66
2023-03-10T12:11:56.417Z,98921.53
2023-03-10T12:14:26.281Z,98910.69
2023-03-10T12:16:54.681Z,98908.41
2023-03-10T12:19:23.231Z,98906.38
2023-03-10T12:22:37.591Z,98902.25
2023-03-10T12:25:28.709Z,98894.91
2023-03-10T12:28:25.495Z,98899.25
2023-03-10T12:31:02.605Z,98890.31
2023-03-10T12:33:30.593Z,98888.50
2023-03-10T12:36:32.940Z,98893.94
2023-03-10T12:39:28.829Z,98879.91
2023-03-10T12:41:58.260Z,98879.69
2023-03-10T12:44:35.224Z,98862.03
2023-03-10T12:47:09.360Z,98872.69
2023-03-10T12:50:02.123Z,98864.28
2023-03-10T12:52:49.719Z,98885.41
2023-03-10T12:55:24.758Z,98873.91
2023-03-10T12:57:52.985Z,98866.19
2023-03-10T13:00:32.828Z,98857.88
2023-03-10T13:03:06.676Z,98858.00
2023-03-10T13:05:39.480Z,98850.66
2023-03-10T13:08:25.189Z,98853.94
2023-03-10T13:10:56.050Z,98855.50
2023-03-10T13:13:30.909Z,98866.03
2023-03-10T13:16:05.340Z,98874.75
2023-03-10T13:18:35.055Z,98875.25
2023-03-10T13:21:03.189Z,98872.47
2023-03-10T13:23:36.663Z,98870.66
2023-03-10T13:26:08.133Z,98869.69
2023-03-10T13:28:37.503Z,98857.81
2023-03-10T13:31:18.488Z,98856.84
2023-03-10T13:33:53.484Z,98856.00
2023-03-10T13:36:25.230Z,98853.44
2023-03-10T13:38:53.570Z,98851.88
2023-03-10T13:41:22.030Z,98853.97
2023-03-10T13:43:54.705Z,98853.13
2023-03-10T13:46:27.248Z,98852.25
2023-03-10T13:49:03.861Z,98839.47
2023-03-10T13:51:35.431Z,98840.91
2023-03-10T13:54:12.821Z,98842.63
2023-03-10T13:56:42.614Z,98856.66
2023-03-10T13:59:22.241Z,98854.94
2023-03-10T14:01:54.090Z,98849.16
2023-03-10T14:04:50.176Z,98841.53
2023-03-10T14:07:23.867Z,98849.41
2023-03-10T14:10:10.620Z,98860.81
2023-03-10T14:12:50.681Z,98850.06
2023-03-10T14:15:26.104Z,98856.22
2023-03-10T14:18:09.282Z,98848.25
2023-03-10T14:20:43.041Z,98866.66
2023-03-10T14:23:20.156Z,98860.38
2023-03-10T14:25:53.637Z,98843.16
2023-03-10T14:28:28.021Z,98841.50
2023-03-10T14:30:56.591Z,98850.94
2023-03-10T14:33:24.724Z,98845.72
2023-03-10T14:35:53.086Z,98830.59
2023-03-10T14:38:21.090Z,98841.63
2023-03-10T14:40:54.360Z,98848.03
2023-03-10T14:43:24.597Z,98858.69
2023-03-10T14:45:55.624Z,98855.91
2023-03-10T14:48:25.971Z,98860.38
2023-03-10T14:50:56.980Z,98861.22
2023-03-10T14:53:26.906Z,98845.25
2023-03-10T14:55:56.952Z,98831.34
2023-03-10T14:58:32.368Z,98846.22
2023-03-10T15:01:01.238Z,98850.69
2023-03-10T15:03:29.410Z,98848.78
2023-03-10T15:05:57.930Z,98841.00
2023-03-10T15:08:27.121Z,98840.16
2023-03-10T15:10:57.301Z,98847.91
2023-03-10T15:13:25.481Z,98859.31
2023-03-10T15:15:54.014Z,98860.16
2023-03-10T15:18:23.559Z,98853.13
2023-03-10T15:20:52.073Z,98848.03
2023-03-10T15:23:22.587Z,98856.53
2023-03-10T15:25:52.373Z,98848.03
2023-03-10T15:28:21.133Z,98839.53
2023-03-10T15:30:49.872Z,98843.56
2023-03-10T15:33:17.980Z,98831.56
2023-03-10T15:35:46.383Z,98849.97
2023-03-10T15:38:15.364Z,98843.69
2023-03-10T15:40:43.936Z,98841.00
2023-03-10T15:43:12.121Z,98850.59
2023-03-10T15:45:43.197Z,98867.41
2023-03-10T15:48:11.368Z,98862.31
2023-03-10T15:50:44.700Z,98854.22
2023-03-10T15:53:13.280Z,98850.59
2023-03-10T15:55:42.552Z,98854.22
2023-03-10T15:58:11.688Z,98867.63
2023-03-10T16:00:42.689Z,98853.59
2023-03-10T16:03:12.662Z,98853.34
2023-03-10T16:05:48.142Z,98855.28
2023-03-10T16:08:16.886Z,98856.38
2023-03-10T16:10:55.296Z,98874.03
2023-03-10T16:13:23.965Z,98865.19
2023-03-10T16:15:53.018Z,98870.53
2023-03-10T16:18:21.200Z,98890.97
2023-03-10T16:20:59.746Z,98861.31
2023-03-10T16:23:29.269Z,98857.94
2023-03-10T16:26:09.559Z,98855.28
2023-03-10T16:28:39.444Z,98863.47
2023-03-10T16:31:08.624Z,98858.28
2023-03-10T16:33:36.909Z,98842.88
2023-03-10T16:36:07.584Z,98845.28
2023-03-10T16:38:36.055Z,98835.84
2023-03-10T16:41:04.950Z,98821.81
2023-03-10T16:43:33.693Z,98829.91
2023-03-10T16:46:13.159Z,98823.00
2023-03-10T16:48:45.959Z,98808.09
2023-03-10T16:51:22.518Z,98807.50
2023-03-10T16:53:51.709Z,98823.34
2023-03-10T16:56:20.697Z,98819.09
2023-03-10T16:58:48.822Z,98813.19
2023-03-10T17:01:17.506Z,98809.31
2023-03-10T17:03:46.271Z,98816.19
2023-03-10T17:06:18.829Z,98820.34
2023-03-10T17:08:47.240Z,98823.34
2023-03-10T17:11:27.298Z,98819.81
2023-03-10T17:13:57.819Z,98836.75
2023-03-10T17:16:29.629Z,98838.56
2023-03-10T17:19:00.620Z,98832.41
2023-03-10T17:21:36.178Z,98833.34
2023-03-10T17:24:04.923Z,98832.66
2023-03-10T17:26:34.827Z,98825.75
2023-03-10T17:29:03.363Z,98826.59
2023-03-10T17:31:32.419Z,98825.84
2023-03-10T17:34:05.762Z,98843.41
2023-03-10T17:36:34.938Z,98854.91
2023-03-10T17:39:04.831Z,98858.50
2023-03-10T17:41:36.172Z,98858.63
2023-03-10T17:44:07.533Z,98872.78
2023-03-10T17:46:36.314Z,98867.47
2023-03-10T17:49:04.602Z,98846.19
2023-03-10T17:51:33.684Z,98858.63
2023-03-10T17:54:01.994Z,98875.56
2023-03-10T17:56:30.786Z,98876.28
2023-03-10T17:58:59.076Z,98873.00
2023-03-10T18:01:29.965Z,98873.84
2023-03-10T18:04:00.133Z,98864.91
2023-03-10T18:06:31.831Z,98876.41
2023-03-10T18:09:01.230Z,98870.34
2023-03-10T18:11:30.020Z,98855.34
2023-03-10T18:13:58.697Z,98875.16
2023-03-10T18:16:30.127Z,98868.13
2023-03-10T18:18:59.729Z,98870.91
2023-03-10T18:21:28.703Z,98873.56
2023-03-10T18:23:57.073Z,98857.72
2023-03-10T18:26:29.803Z,98859.19
2023-03-10T18:28:59.854Z,98863.53
2023-03-10T18:31:31.861Z,98845.16
2023-03-10T18:34:00.806Z,98854.94
2023-03-10T18:36:30.196Z,98866.44
2023-03-10T18:38:58.808Z,98867.28
2023-03-10T18:41:31.065Z,98861.97
2023-03-10T18:44:00.805Z,98862.81
2023-03-10T18:46:29.826Z,98871.84
2023-03-10T18:48:58.527Z,98878.97
2023-03-10T18:51:28.436Z,98868.59
2023-03-10T18:54:04.395Z,98862.53
2023-03-10T18:56:38.807Z,98863.50
2023-03-10T18:59:07.047Z,98865.19
2023-03-10T19:01:35.933Z,98852.88
2023-03-10T19:04:04.453Z,98862.75
2023-03-10T19:06:34.032Z,98882.13
2023-03-10T19:09:02.273Z,98885.00
2023-03-10T19:11:35.734Z,98887.22
2023-03-10T19:14:05.673Z,98884.78
2023-03-10T19:16:40.153Z,98891.06
2023-03-10T19:19:08.475Z,98893.94
2023-03-10T19:21:38.240Z,98896.59
2023-03-10T19:24:06.918Z,98891.50
2023-03-10T19:26:35.619Z,98888.84
2023-03-10T19:29:04.193Z,98898.41
2023-03-10T19:31:32.970Z,98897.56
2023-03-10T19:34:01.431Z,98894.16
2023-03-10T19:36:30.036Z,98897.56
2023-03-10T19:38:58.304Z,98895.84
2023-03-10T19:41:27.084Z,98892.44
2023-03-10T19:43:55.278Z,98893.09
2023-03-10T19:46:23.981Z,98886.91
2023-03-10T19:48:52.473Z,98891.38
2023-03-10T19:51:24.445Z,98886.91
2023-03-10T19:53:54.824Z,98880.97
2023-03-10T19:56:25.695Z,98887.88
2023-03-10T19:58:54.009Z,98900.09
2023-03-10T20:01:25.293Z,98900.72
2023-03-10T20:03:59.766Z,98915.72
2023-03-10T20:06:29.304Z,98913.69
2023-03-10T20:08:57.584Z,98928.22
2023-03-10T20:11:26.388Z,98920.25
2023-03-10T20:13:54.858Z,98928.13
2023-03-10T20:16:24.453Z,98938.31
2023-03-10T20:18:53.122Z,98947.91
2023-03-10T20:21:21.806Z,98957.69
2023-03-10T20:23:50.046Z,98957.91
2023-03-10T20:26:37.605Z,98969.41
2023-03-10T20:29:05.804Z,98970.25
2023-03-10T20:31:34.650Z,98963.34
2023-03-10T20:34:05.578Z,98967.91
2023-03-10T20:36:34.532Z,98953.03
2023-03-10T20:39:02.765Z,98952.81
2023-03-10T20:41:31.389Z,98956.41
2023-03-10T20:43:59.657Z,98949.41
2023-03-10T20:46:28.402Z,98963.66
2023-03-10T20:48:56.650Z,98958.13
2023-03-10T20:51:25.182Z,98950.25
2023-03-10T20:53:53.402Z,98958.34
2023-03-10T20:56:22.183Z,98951.09
2023-03-10T20:58:50.389Z,98957.50
2023-03-10T21:01:21.158Z,98937.06
2023-03-10T21:03:49.259Z,98940.69
2023-03-10T21:06:17.626Z,98947.59
2023-03-10T21:08:46.055Z,98939.63
2023-03-10T21:11:15.805Z,98932.69
2023-03-10T21:13:44.148Z,98942.28
2023-03-10T21:16:12.545Z,98949.19
2023-03-10T21:18:40.741Z,98959.19
2023-03-10T21:21:09.862Z,98973.22
2023-03-10T21:23:47.719Z,98962.25
2023-03-10T21:26:18.987Z,98957.16
2023-03-10T21:28:47.624Z,98964.19
2023-03-10T21:31:17.189Z,98959.59
2023-03-10T21:33:45.280Z,98949.41
2023-03-10T21:36:19.288Z,98943.22
2023-03-10T21:38:48.970Z,98940.69
2023-03-10T21:41:22.872Z,98943.34
2023-03-10T21:43:54.539Z,98942.38
2023-03-10T21:46:24.484Z,98952.81
2023-03-10T21:48:52.543Z,98970.69
2023-03-10T21:51:23.383Z,98975.25
2023-03-10T21:53:53.803Z,98974.31
2023-03-10T21:56:26.171Z,98953.47
2023-03-10T21:58:54.171Z,98964.72
2023-03-10T22:01:23.521Z,98951.84
2023-03-10T22:03:51.573Z,98948.34
2023-03-10T22:06:19.998Z,98956.84
2023-03-10T22:08:48.345Z,98946.78
2023-03-10T22:11:17.191Z,98959.59
2023-03-10T22:13:45.216Z,98972.38
2023-03-10T22:16:17.567Z,98979.00
2023-03-10T22:18:46.339Z,98969.41
2023-03-10T22:21:14.827Z,98955.31
2023-03-10T22:23:44.087Z,98944.78
2023-03-10T22:26:13.634Z,98955.63
2023-03-10T22:28:41.602Z,98956.91
2023-03-10T22:31:10.796Z,98957.75
2023-03-10T22:33:39.001Z,98957.75
2023-03-10T22:36:09.675Z,98952.66
2023-03-10T22:38:37.769Z,98942.00
2023-03-10T22:41:10.849Z,98942.00
2023-03-10T22:43:38.819Z,98920.34
2023-03-10T22:46:15.485Z,98935.22
2023-03-10T22:48:44.395Z,98940.31
2023-03-10T22:51:15.512Z,98927.97
2023-03-10T22:53:44.121Z,98935.00
2023-03-10T22:56:12.373Z,98923.50
2023-03-10T22:58:40.583Z,98927.13
2023-03-10T23:01:09.182Z,98941.28
2023-03-10T23:03:37.338Z,98929.69
2023-03-10T23:06:06.740Z,98939.56
2023-03-10T23:08:37.640Z,98949.25
2023-03-10T23:11:11.016Z,98939.69
2023-03-10T23:13:39.190Z,98952.00
2023-03-10T23:16:07.929Z,98956.47
2023-03-10T23:18:35.998Z,98947.66
2023-03-10T23:21:05.317Z,98940.78
2023-03-10T23:23:33.306Z,98949.59
2023-03-10T23:26:01.825Z,98945.84
2023-03-10T23:28:29.798Z,98944.19
2023-03-10T23:30:59.863Z,98939.69
2023-03-10T23:33:28.903Z,98946.19
2023-03-10T23:35:57.198Z,98946.09
2023-03-10T23:38:26.045Z,98962.78
2023-03-10T23:40:55.616Z,98949.59
2023-03-10T23:43:24.131Z,98954.06
2023-03-10T23:45:52.681Z,98939.94
2023-03-10T23:48:20.863Z,98952.38
2023-03-10T23:50:49.211Z,98952.47
2023-03-10T23:53:20.140Z,98954.19
2023-03-10T23:55:49.312Z,98951.63
2023-03-10T23:58:18.142Z,98960.56
